createdAt,value
2022-10-07T00:02:26.863Z,14.30
2022-10-07T00:05:00.901Z,14.98
2022-10-07T00:07:32.117Z,13.70
2022-10-07T00:10:03.693Z,11.48
2022-10-07T00:12:35.755Z,16.30
2022-10-07T00:15:07.673Z,12.35
2022-10-07T00:17:38.957Z,15.43
2022-10-07T00:20:12.344Z,13.60
2022-10-07T00:22:44.028Z,11.33
2022-10-07T00:25:15.853Z,11.00
2022-10-07T00:27:47.266Z,13.13
2022-10-07T00:30:18.846Z,10.38
2022-10-07T00:32:50.441Z,12.50
2022-10-07T00:35:21.948Z,11.20
2022-10-07T00:37:53.657Z,11.80
2022-10-07T00:40:24.251Z,9.63
2022-10-07T00:42:54.976Z,11.08
2022-10-07T00:45:25.471Z,10.23
2022-10-07T00:47:56.302Z,10.38
2022-10-07T00:50:32.967Z,9.78
2022-10-07T00:53:04.822Z,9.50
2022-10-07T00:55:36.541Z,7.60
2022-10-07T00:58:09.847Z,11.53
2022-10-07T01:00:42.150Z,8.05
2022-10-07T01:03:12.846Z,8.48
2022-10-07T01:05:44.853Z,8.75
2022-10-07T01:08:16.742Z,10.63
2022-10-07T01:10:49.772Z,12.07
2022-10-07T01:13:32.631Z,7.65
2022-10-07T01:16:02.543Z,8.88
2022-10-07T01:18:35.609Z,9.60
2022-10-07T01:21:08.826Z,9.65
2022-10-07T01:23:41.959Z,7.20
2022-10-07T01:26:21.466Z,7.72
2022-10-07T01:28:54.204Z,8.45
2022-10-07T01:31:30.419Z,6.75
2022-10-07T01:34:08.879Z,7.33
2022-10-07T01:36:48.142Z,6.33
2022-10-07T01:39:21.258Z,7.50
2022-10-07T01:41:57.159Z,6.28
2022-10-07T01:44:44.577Z,7.28
2022-10-07T01:47:19.154Z,5.35
2022-10-07T01:49:56.405Z,7.25
2022-10-07T01:52:34.223Z,5.55
2022-10-07T01:55:10.478Z,4.92
2022-10-07T01:57:43.617Z,8.23
2022-10-07T02:00:16.845Z,6.40
2022-10-07T02:02:50.058Z,5.37
2022-10-07T02:05:23.123Z,15.03
2022-10-07T02:07:54.657Z,12.53
2022-10-07T02:10:27.816Z,12.28
2022-10-07T02:13:00.836Z,8.18
2022-10-07T02:15:34.334Z,15.63
2022-10-07T02:18:25.477Z,16.60
2022-10-07T02:20:58.182Z,6.83
2022-10-07T02:23:29.958Z,17.52
2022-10-07T02:26:01.474Z,21.23
2022-10-07T02:28:34.713Z,6.85
2022-10-07T02:31:08.555Z,4.40
2022-10-07T02:33:40.477Z,3.98
2022-10-07T02:36:13.636Z,7.00
2022-10-07T02:38:44.710Z,5.58
2022-10-07T02:41:16.433Z,5.40
2022-10-07T02:43:49.782Z,5.80
2022-10-07T02:46:23.756Z,5.92
2022-10-07T02:48:58.520Z,6.25
2022-10-07T02:51:33.418Z,4.55
2022-10-07T02:54:06.491Z,3.77
2022-10-07T02:56:39.595Z,6.12
2022-10-07T02:59:12.581Z,4.15
2022-10-07T03:01:47.126Z,4.17
2022-10-07T03:04:20.429Z,4.12
2022-10-07T03:06:51.375Z,3.87
2022-10-07T03:09:25.250Z,5.12
2022-10-07T03:11:56.379Z,4.53
2022-10-07T03:14:26.981Z,4.40
2022-10-07T03:16:57.663Z,3.72
2022-10-07T03:19:28.513Z,4.42
2022-10-07T03:21:59.111Z,3.25
2022-10-07T03:24:29.708Z,5.33
2022-10-07T03:27:00.398Z,3.75
2022-10-07T03:29:32.550Z,4.50
2022-10-07T03:32:03.922Z,3.22
2022-10-07T03:34:34.479Z,3.27
2022-10-07T03:37:05.652Z,4.60
2022-10-07T03:39:36.748Z,4.12
2022-10-07T03:42:07.519Z,5.25
2022-10-07T03:44:39.417Z,4.80
2022-10-07T03:47:11.235Z,5.28
2022-10-07T03:49:43.045Z,6.60
2022-10-07T03:52:14.220Z,5.10
2022-10-07T03:54:44.902Z,3.25
2022-10-07T03:57:17.152Z,3.87
2022-10-07T03:59:47.738Z,5.53
2022-10-07T04:02:18.326Z,4.47
2022-10-07T04:04:50.464Z,4.67
2022-10-07T04:07:23.241Z,6.28
2022-10-07T04:09:55.176Z,3.35
2022-10-07T04:12:26.034Z,3.17
2022-10-07T04:14:56.923Z,4.28
2022-10-07T04:17:27.851Z,6.30
2022-10-07T04:19:59.654Z,4.40
2022-10-07T04:22:32.284Z,5.45
2022-10-07T04:25:04.475Z,4.42
2022-10-07T04:27:58.113Z,2.90
2022-10-07T04:30:07.799Z,3.87
2022-10-07T04:32:38.917Z,4.40
2022-10-07T04:35:11.612Z,4.75
2022-10-07T04:37:43.582Z,4.58
2022-10-07T04:40:16.029Z,4.42
2022-10-07T04:42:48.016Z,3.80
2022-10-07T04:45:19.064Z,4.37
2022-10-07T04:47:49.976Z,3.25
2022-10-07T04:50:21.131Z,4.75
2022-10-07T04:52:52.359Z,3.12
2022-10-07T04:55:23.909Z,3.90
2022-10-07T04:57:55.087Z,5.00
2022-10-07T05:00:26.750Z,2.98
2022-10-07T05:02:57.342Z,3.20
2022-10-07T05:05:29.499Z,5.05
2022-10-07T05:08:01.989Z,3.30
2022-10-07T05:10:32.343Z,2.45
2022-10-07T05:13:02.999Z,5.47
2022-10-07T05:15:33.895Z,5.08
2022-10-07T05:18:05.143Z,3.75
2022-10-07T05:20:36.447Z,4.85
2022-10-07T05:23:07.128Z,4.55
2022-10-07T05:25:37.731Z,4.22
2022-10-07T05:28:08.439Z,4.75
2022-10-07T05:30:39.654Z,6.00
2022-10-07T05:33:11.814Z,5.78
2022-10-07T05:35:44.594Z,3.77
2022-10-07T05:38:15.048Z,3.98
2022-10-07T05:40:45.649Z,4.67
2022-10-07T05:43:16.129Z,6.55
2022-10-07T05:45:48.168Z,3.80
2022-10-07T05:48:19.102Z,4.60
2022-10-07T05:50:50.266Z,6.50
2022-10-07T05:53:21.063Z,3.37
2022-10-07T05:55:52.645Z,5.28
2022-10-07T05:58:24.390Z,2.65
2022-10-07T06:01:01.007Z,3.00
2022-10-07T06:03:30.319Z,3.65
2022-10-07T06:06:01.832Z,3.35
2022-10-07T06:08:32.641Z,3.27
2022-10-07T06:11:07.866Z,3.58
2022-10-07T06:13:39.396Z,4.33
2022-10-07T06:16:11.959Z,6.53
2022-10-07T06:18:45.192Z,3.77
2022-10-07T06:21:15.065Z,5.10
2022-10-07T06:23:45.808Z,4.87
2022-10-07T06:26:16.401Z,3.62
2022-10-07T06:28:47.497Z,4.03
2022-10-07T06:31:22.820Z,4.42
2022-10-07T06:33:54.151Z,3.10
2022-10-07T06:36:25.257Z,4.85
2022-10-07T06:38:57.575Z,4.42
2022-10-07T06:41:28.372Z,4.17
2022-10-07T06:43:59.167Z,2.92
2022-10-07T06:46:30.375Z,3.77
2022-10-07T06:49:01.123Z,3.35
2022-10-07T06:51:32.206Z,2.77
2022-10-07T06:54:02.793Z,3.15
2022-10-07T06:56:33.898Z,6.28
2022-10-07T06:59:04.736Z,6.20
2022-10-07T07:01:36.190Z,4.72
2022-10-07T07:04:06.828Z,3.52
2022-10-07T07:06:39.421Z,4.03
2022-10-07T07:09:10.020Z,3.55
2022-10-07T07:11:42.125Z,4.28
2022-10-07T07:14:15.683Z,4.85
2022-10-07T07:16:47.018Z,6.25
2022-10-07T07:19:18.000Z,4.08
2022-10-07T07:21:50.569Z,4.28
2022-10-07T07:24:21.974Z,3.62
2022-10-07T07:26:52.750Z,3.20
2022-10-07T07:29:23.380Z,3.52
2022-10-07T07:31:55.543Z,4.60
2022-10-07T07:34:26.217Z,3.77
2022-10-07T07:36:56.695Z,3.02
2022-10-07T07:39:27.516Z,3.30
2022-10-07T07:41:58.318Z,4.70
2022-10-07T07:44:33.996Z,3.65
2022-10-07T07:47:05.458Z,4.00
2022-10-07T07:49:37.540Z,3.40
2022-10-07T07:52:08.552Z,4.35
2022-10-07T07:54:40.872Z,5.12
2022-10-07T07:57:12.492Z,3.83
2022-10-07T07:59:43.143Z,4.03
2022-10-07T08:02:14.600Z,3.92
2022-10-07T08:04:45.625Z,7.62
2022-10-07T08:07:16.881Z,3.98
2022-10-07T08:09:47.926Z,3.77
2022-10-07T08:12:18.720Z,4.28
2022-10-07T08:14:49.795Z,3.65
2022-10-07T08:17:20.733Z,3.55
2022-10-07T08:19:51.512Z,2.92
2022-10-07T08:22:22.064Z,2.98
2022-10-07T08:24:52.669Z,5.22
2022-10-07T08:27:23.578Z,3.72
2022-10-07T08:29:54.044Z,3.00
2022-10-07T08:32:24.684Z,3.30
2022-10-07T08:34:55.881Z,4.08
2022-10-07T08:37:26.336Z,4.28
2022-10-07T08:39:58.423Z,4.17
2022-10-07T08:42:30.332Z,5.50
2022-10-07T08:45:03.471Z,3.80
2022-10-07T08:47:37.220Z,4.65
2022-10-07T08:50:14.081Z,4.83
2022-10-07T08:52:45.440Z,4.05
2022-10-07T08:55:17.210Z,4.40
2022-10-07T08:57:50.486Z,6.28
2022-10-07T09:00:23.571Z,3.10
2022-10-07T09:02:56.831Z,4.00
2022-10-07T09:05:30.936Z,5.60
2022-10-07T09:08:03.992Z,5.87
2022-10-07T09:10:36.984Z,4.85
2022-10-07T09:13:10.288Z,5.80
2022-10-07T09:15:42.253Z,4.58
2022-10-07T09:18:15.616Z,6.40
2022-10-07T09:20:48.854Z,6.75
2022-10-07T09:23:20.332Z,7.40
2022-10-07T09:25:52.125Z,7.67
2022-10-07T09:28:25.478Z,4.05
2022-10-07T09:30:57.530Z,3.02
2022-10-07T09:33:30.283Z,3.12
2022-10-07T09:36:03.782Z,2.70
2022-10-07T09:38:35.374Z,2.95
2022-10-07T09:41:10.222Z,4.87
2022-10-07T09:43:43.627Z,3.70
2022-10-07T09:46:21.432Z,3.02
2022-10-07T09:48:55.391Z,2.02
2022-10-07T09:51:28.067Z,2.67
2022-10-07T09:54:00.399Z,5.28
2022-10-07T09:56:34.814Z,5.15
2022-10-07T09:59:09.977Z,3.98
2022-10-07T10:01:43.541Z,3.15
2022-10-07T10:04:17.915Z,4.42
2022-10-07T10:06:52.193Z,3.83
2022-10-07T10:09:25.510Z,4.60
2022-10-07T10:14:32.590Z,3.45
2022-10-07T10:17:07.748Z,3.70
2022-10-07T10:19:38.453Z,5.25
2022-10-07T10:22:10.353Z,4.67
2022-10-07T10:24:45.408Z,3.83
2022-10-07T10:27:16.929Z,4.53
2022-10-07T10:29:48.592Z,3.75
2022-10-07T10:32:22.475Z,4.95
2022-10-07T10:34:53.935Z,5.42
2022-10-07T10:37:25.743Z,5.17
2022-10-07T10:40:01.869Z,4.75
2022-10-07T10:42:37.528Z,8.93
2022-10-07T10:45:10.835Z,4.10
2022-10-07T10:47:43.895Z,6.45
2022-10-07T10:50:17.026Z,5.87
2022-10-07T10:52:51.264Z,6.12
2022-10-07T10:55:22.853Z,6.10
2022-10-07T10:58:00.333Z,8.20
2022-10-07T11:00:31.604Z,4.92
2022-10-07T11:03:04.641Z,4.60
2022-10-07T11:05:36.387Z,5.12
2022-10-07T11:08:09.449Z,4.85
2022-10-07T11:10:43.273Z,4.45
2022-10-07T11:13:16.939Z,6.75
2022-10-07T11:15:49.986Z,5.40
2022-10-07T11:18:23.212Z,8.88
2022-10-07T11:20:54.743Z,5.45
2022-10-07T11:23:28.597Z,7.05
2022-10-07T11:26:02.189Z,5.92
2022-10-07T11:28:35.865Z,5.28
2022-10-07T11:31:09.173Z,5.72
2022-10-07T11:33:44.020Z,5.80
2022-10-07T11:36:17.426Z,6.12
2022-10-07T11:38:49.127Z,6.12
2022-10-07T11:41:22.189Z,5.65
2022-10-07T11:43:57.199Z,6.10
2022-10-07T11:46:31.455Z,7.45
2022-10-07T11:49:05.230Z,10.13
2022-10-07T11:51:39.437Z,6.12
2022-10-07T11:54:12.919Z,7.58
2022-10-07T11:56:46.342Z,8.68
2022-10-07T11:59:21.048Z,5.92
2022-10-07T12:01:54.525Z,5.78
2022-10-07T12:04:27.570Z,6.42
2022-10-07T12:07:00.735Z,5.58
2022-10-07T12:09:33.765Z,5.83
2022-10-07T12:12:05.081Z,5.20
2022-10-07T12:14:38.810Z,6.33
2022-10-07T12:17:12.063Z,6.78
2022-10-07T12:19:43.255Z,5.75
2022-10-07T12:22:14.747Z,7.83
2022-10-07T12:24:48.082Z,5.20
2022-10-07T12:27:20.131Z,7.28
2022-10-07T12:29:52.160Z,8.50
2022-10-07T12:32:26.414Z,5.62
2022-10-07T12:34:57.060Z,7.67
2022-10-07T12:37:30.548Z,8.73
2022-10-07T12:40:03.216Z,7.55
2022-10-07T12:42:34.785Z,5.85
2022-10-07T12:45:08.565Z,3.12
2022-10-07T12:47:41.291Z,4.42
2022-10-07T12:50:14.547Z,4.70
2022-10-07T12:52:47.870Z,11.38
2022-10-07T12:55:23.038Z,8.63
2022-10-07T12:57:55.645Z,4.03
2022-10-07T13:00:27.551Z,3.67
2022-10-07T13:03:01.130Z,2.08
2022-10-07T13:05:34.359Z,2.33
2022-10-07T13:08:08.303Z,6.28
2022-10-07T13:10:41.361Z,5.17
2022-10-07T13:13:14.624Z,4.53
2022-10-07T13:15:48.172Z,2.95
2022-10-07T13:18:21.204Z,5.35
2022-10-07T13:20:54.236Z,2.58
2022-10-07T13:23:27.383Z,4.10
2022-10-07T13:26:00.656Z,3.33
2022-10-07T13:28:33.718Z,2.85
2022-10-07T13:31:07.170Z,3.25
2022-10-07T13:33:37.822Z,6.35
2022-10-07T13:36:11.099Z,4.95
2022-10-07T13:38:42.004Z,4.33
2022-10-07T13:41:15.165Z,8.08
2022-10-07T13:43:46.842Z,3.70
2022-10-07T13:46:17.995Z,3.55
2022-10-07T13:48:50.067Z,3.22
2022-10-07T13:51:23.398Z,3.52
2022-10-07T13:53:56.773Z,3.22
2022-10-07T13:56:30.076Z,6.35
2022-10-07T13:59:02.076Z,4.90
2022-10-07T14:01:34.498Z,4.62
2022-10-07T14:04:08.117Z,4.53
2022-10-07T14:06:44.047Z,5.80
2022-10-07T14:09:17.087Z,3.92
2022-10-07T14:12:02.825Z,4.30
2022-10-07T14:14:36.518Z,4.92
2022-10-07T14:17:09.553Z,4.45
2022-10-07T14:19:41.584Z,7.30
2022-10-07T14:22:14.757Z,5.53
2022-10-07T14:24:46.820Z,5.42
2022-10-07T14:27:19.855Z,5.85
2022-10-07T14:29:50.909Z,5.22
2022-10-07T14:32:24.589Z,3.37
2022-10-07T14:34:56.767Z,4.70
2022-10-07T14:37:31.646Z,3.42
2022-10-07T14:40:00.467Z,5.08
2022-10-07T14:42:34.467Z,3.20
2022-10-07T14:45:09.956Z,4.20
2022-10-07T14:47:42.641Z,4.60
2022-10-07T14:50:15.097Z,4.83
2022-10-07T14:52:48.398Z,3.10
2022-10-07T14:55:21.893Z,4.28
2022-10-07T14:57:53.086Z,5.80
2022-10-07T15:00:25.938Z,6.15
2022-10-07T15:02:58.294Z,5.92
2022-10-07T15:05:29.210Z,4.03
2022-10-07T15:07:59.819Z,5.50
2022-10-07T15:10:32.249Z,3.52
2022-10-07T15:13:04.118Z,4.50
2022-10-07T15:15:37.702Z,5.53
2022-10-07T15:18:09.561Z,6.80
2022-10-07T15:20:41.876Z,6.33
2022-10-07T15:23:13.372Z,4.08
2022-10-07T15:25:44.332Z,4.72
2022-10-07T15:28:15.896Z,4.83
2022-10-07T15:30:46.471Z,6.50
2022-10-07T15:33:17.286Z,6.75
2022-10-07T15:35:47.959Z,7.30
2022-10-07T15:38:18.736Z,4.83
2022-10-07T15:40:51.929Z,5.80
2022-10-07T15:43:22.624Z,6.85
2022-10-07T15:45:53.688Z,7.33
2022-10-07T15:48:25.520Z,9.73
2022-10-07T15:50:57.914Z,5.03
2022-10-07T15:53:28.628Z,10.28
2022-10-07T15:56:00.477Z,4.85
2022-10-07T15:58:32.458Z,6.33
2022-10-07T16:01:05.386Z,7.75
2022-10-07T16:03:39.614Z,4.70
2022-10-07T16:06:12.451Z,7.70
2022-10-07T16:08:43.551Z,5.50
2022-10-07T16:11:15.546Z,5.58
2022-10-07T16:13:48.658Z,5.92
2022-10-07T16:16:21.748Z,7.62
2022-10-07T16:18:54.534Z,6.20
2022-10-07T16:21:26.091Z,9.13
2022-10-07T16:23:59.321Z,8.15
2022-10-07T16:26:31.333Z,8.80
2022-10-07T16:29:06.750Z,5.47
2022-10-07T16:31:42.758Z,7.12
2022-10-07T16:34:15.348Z,4.95
2022-10-07T16:36:49.058Z,10.93
2022-10-07T16:39:22.675Z,7.35
2022-10-07T16:41:57.769Z,7.25
2022-10-07T16:44:29.076Z,7.12
2022-10-07T16:47:01.087Z,7.87
2022-10-07T16:49:31.700Z,6.92
2022-10-07T16:52:02.209Z,4.58
2022-10-07T16:54:37.354Z,7.92
2022-10-07T16:57:12.219Z,6.83
2022-10-07T16:59:44.581Z,5.75
2022-10-07T17:02:15.251Z,5.97
2022-10-07T17:04:45.776Z,4.22
2022-10-07T17:07:16.602Z,8.00
2022-10-07T17:09:47.311Z,5.30
2022-10-07T17:12:17.923Z,7.30
2022-10-07T17:14:48.611Z,6.87
2022-10-07T17:17:20.129Z,7.75
2022-10-07T17:19:51.425Z,5.75
2022-10-07T17:22:22.116Z,4.33
2022-10-07T17:24:53.452Z,5.08
2022-10-07T17:27:23.957Z,4.80
2022-10-07T17:29:56.117Z,5.70
2022-10-07T17:32:28.212Z,7.25
2022-10-07T17:34:58.949Z,7.08
2022-10-07T17:37:29.669Z,5.15
2022-10-07T17:40:00.308Z,5.03
2022-10-07T17:42:31.215Z,6.72
2022-10-07T17:45:02.136Z,5.97
2022-10-07T17:47:33.878Z,10.65
2022-10-07T17:50:04.605Z,5.78
2022-10-07T17:52:36.682Z,5.65
2022-10-07T17:55:08.073Z,5.12
2022-10-07T17:57:38.771Z,7.37
2022-10-07T18:00:10.133Z,5.55
2022-10-07T18:02:41.017Z,6.65
2022-10-07T18:05:12.588Z,3.70
2022-10-07T18:07:43.862Z,4.78
2022-10-07T18:10:14.587Z,4.45
2022-10-07T18:12:46.693Z,5.78
2022-10-07T18:15:18.785Z,11.25
2022-10-07T18:17:52.062Z,7.58
2022-10-07T18:20:25.530Z,8.53
2022-10-07T18:22:58.099Z,10.28
2022-10-07T18:25:28.774Z,6.70
2022-10-07T18:28:00.747Z,5.92
2022-10-07T18:30:31.280Z,12.73
2022-10-07T18:33:02.233Z,6.97
2022-10-07T18:35:32.825Z,5.45
2022-10-07T18:38:06.148Z,3.95
2022-10-07T18:40:36.882Z,5.62
2022-10-07T18:43:10.223Z,5.47
2022-10-07T18:45:40.987Z,7.33
2022-10-07T18:48:13.094Z,6.92
2022-10-07T18:50:46.266Z,5.65
2022-10-07T18:53:16.860Z,9.43
2022-10-07T18:55:50.492Z,4.78
2022-10-07T18:58:23.940Z,6.03
2022-10-07T19:00:54.706Z,5.60
2022-10-07T19:03:25.293Z,6.83
2022-10-07T19:05:58.170Z,8.18
2022-10-07T19:08:28.652Z,9.35
2022-10-07T19:10:59.179Z,6.03
2022-10-07T19:13:31.201Z,10.72
2022-10-07T19:16:04.549Z,6.78
2022-10-07T19:18:36.899Z,6.90
2022-10-07T19:21:07.596Z,9.23
2022-10-07T19:23:38.323Z,6.78
2022-10-07T19:26:09.850Z,7.92
2022-10-07T19:28:41.502Z,3.47
2022-10-07T19:31:14.695Z,5.58
2022-10-07T19:33:47.418Z,7.05
2022-10-07T19:36:19.449Z,7.75
2022-10-07T19:38:52.647Z,8.50
2022-10-07T19:41:25.990Z,8.78
2022-10-07T19:44:00.078Z,5.30
2022-10-07T19:46:31.608Z,7.80
2022-10-07T19:49:04.027Z,7.92
2022-10-07T19:51:35.862Z,8.08
2022-10-07T19:54:08.963Z,12.18
2022-10-07T19:56:40.273Z,7.58
2022-10-07T19:59:13.600Z,4.92
2022-10-07T20:01:47.717Z,5.95
2022-10-07T20:04:21.777Z,4.50
2022-10-07T20:06:52.452Z,8.20
2022-10-07T20:09:23.771Z,9.58
2022-10-07T20:11:54.271Z,6.08
2022-10-07T20:14:24.860Z,6.25
2022-10-07T20:16:57.395Z,6.58
2022-10-07T20:19:28.257Z,13.22
2022-10-07T20:22:00.218Z,6.97
2022-10-07T20:24:30.974Z,6.22
2022-10-07T20:27:01.460Z,7.42
2022-10-07T20:29:32.281Z,5.92
2022-10-07T20:32:02.981Z,5.30
2022-10-07T20:34:33.588Z,4.65
2022-10-07T20:37:04.206Z,6.12
2022-10-07T20:39:36.125Z,5.70
2022-10-07T20:42:09.444Z,4.47
2022-10-07T20:44:41.028Z,7.45
2022-10-07T20:47:12.980Z,4.72
2022-10-07T20:49:43.696Z,6.50
2022-10-07T20:52:18.001Z,5.58
2022-10-07T20:54:49.606Z,7.25
2022-10-07T20:57:22.578Z,4.53
2022-10-07T20:59:53.880Z,6.28
2022-10-07T21:02:27.916Z,4.05
2022-10-07T21:05:00.037Z,5.10
2022-10-07T21:07:30.655Z,5.65
2022-10-07T21:10:01.358Z,8.83
2022-10-07T21:12:33.026Z,5.03
2022-10-07T21:15:04.908Z,7.35
2022-10-07T21:17:37.094Z,8.73
2022-10-07T21:20:08.367Z,5.53
2022-10-07T21:22:39.261Z,6.35
2022-10-07T21:25:11.594Z,3.35
2022-10-07T21:27:42.486Z,4.97
2022-10-07T21:30:13.681Z,6.45
2022-10-07T21:32:44.886Z,5.62
2022-10-07T21:35:15.698Z,4.47
2022-10-07T21:37:47.306Z,4.42
2022-10-07T21:40:18.061Z,5.25
2022-10-07T21:42:49.051Z,8.78
2022-10-07T21:45:20.350Z,6.55
2022-10-07T21:47:51.602Z,3.87
2022-10-07T21:50:22.415Z,7.20
2022-10-07T21:52:53.489Z,6.03
2022-10-07T21:55:24.627Z,6.33
2022-10-07T21:57:55.112Z,6.20
2022-10-07T22:00:25.832Z,7.37
2022-10-07T22:02:58.052Z,8.03
2022-10-07T22:05:28.752Z,6.85
2022-10-07T22:08:00.818Z,7.50
2022-10-07T22:10:31.600Z,10.58
2022-10-07T22:13:02.137Z,5.92
2022-10-07T22:15:32.938Z,7.22
2022-10-07T22:18:04.818Z,9.00
2022-10-07T22:20:36.776Z,7.35
2022-10-07T22:23:07.513Z,10.53
2022-10-07T22:25:38.209Z,5.87
2022-10-07T22:28:08.895Z,8.80
2022-10-07T22:30:42.447Z,7.83
2022-10-07T22:33:15.425Z,6.40
2022-10-07T22:35:45.915Z,6.95
2022-10-07T22:38:18.164Z,6.10
2022-10-07T22:40:49.270Z,5.80
2022-10-07T22:43:20.115Z,6.03
2022-10-07T22:45:53.246Z,7.53
2022-10-07T22:48:23.849Z,6.67
2022-10-07T22:50:55.566Z,6.12
2022-10-07T22:53:27.421Z,8.83
2022-10-07T22:55:58.028Z,6.97
2022-10-07T22:58:28.637Z,9.70
2022-10-07T23:01:00.714Z,9.05
2022-10-07T23:03:31.388Z,6.92
2022-10-07T23:06:03.928Z,9.55
2022-10-07T23:08:35.724Z,11.03
2022-10-07T23:11:07.475Z,7.72
2022-10-07T23:13:38.990Z,8.55
2022-10-07T23:16:13.847Z,11.25
2022-10-07T23:18:46.188Z,10.10
2022-10-07T23:21:19.311Z,8.90
2022-10-07T23:23:53.039Z,9.40
2022-10-07T23:26:27.324Z,8.83
2022-10-07T23:29:00.471Z,9.20
2022-10-07T23:31:33.166Z,12.33
2022-10-07T23:34:05.473Z,8.90
2022-10-07T23:36:36.416Z,10.48
2022-10-07T23:39:07.307Z,11.45
2022-10-07T23:41:38.448Z,9.20
2022-10-07T23:44:09.221Z,10.48
2022-10-07T23:46:40.641Z,10.32
2022-10-07T23:49:12.519Z,11.48
2022-10-07T23:51:43.259Z,11.78
2022-10-07T23:54:14.092Z,10.08
2022-10-07T23:56:44.701Z,8.80
2022-10-07T23:59:15.370Z,9.20
